Adrian, North Dakota
Current Conditions -  °F | °C
As of 2:56 AM on Thursday 18 Dec 2014 (Local Time) from KJMS Reporting Station
Overcast Overcast  
Wind Chill:   Ceiling: 7500
Heat Index: 10°   Visibility: 10mi
Dew Point:   Wind: 5mph
Humidity: 87%   Direction: 150°SSE
Pressure: 30.2"   Gusts: NA
Location:  46.6526°N, 98.6214°W
Report Text: KJMS 180856Z AUTO 15004KT 10SM OVC075 M12/M14 A3020 RMK AO2 SLP259 T11221139 56009
Loading
Personal Weather Stations






























Interactive Weather Map New forecast layout! Learn more

10-Day Weather Forecast

Advertisements
Track Severe Weather on mobile